Capricorn — PDAY — position and weather

sailwx.info

Track history (hours):
 
Tides and Currents Weather Stations Pressure Air Temp Water Temp Dewpoint Dewpoint Depression Visibility Wind Speed Wind Dir Waves Ship Positions

Capricorn

Last reported at 2017-Oct-20 03:31 UTC. Time now 2017-Oct-20 03:32 UTC.
Position N 43°20' W 003°02'.

Length 118 m; beam 15 m.

Type: Cargo ship. MMSI: 244050844.

Date/timePositionNaut miles runAvg speedWind from/ knotsBaromVisibWave heightAir tempDewpointWater temp
2017-Oct-20 03:31N 43°20' W 003°02'0 0.0
2017-Oct-20 02:55N 43°20' W 003°02'0 0.0
2017-Oct-20 02:28N 43°20' W 003°02'0 0.0
2017-Oct-20 01:58N 43°20' W 003°02'0 0.0
2017-Oct-20 01:28N 43°20' W 003°02'0 0.0
2017-Oct-20 01:01N 43°20' W 003°02'0 0.0
2017-Oct-20 00:28N 43°20' W 003°02'0 0.0
2017-Oct-20 00:01N 43°20' W 003°02'0 0.0
2017-Oct-19 23:25N 43°20' W 003°02'0 0.0
2017-Oct-19 22:55N 43°20' W 003°02'0 0.0
2017-Oct-19 22:31N 43°20' W 003°02'0 0.0
2017-Oct-19 21:58N 43°20' W 003°02'0 0.0
2017-Oct-19 21:28N 43°20' W 003°02'0 0.0
2017-Oct-19 20:58N 43°20' W 003°02'0 0.0
2017-Oct-19 20:31N 43°20' W 003°02'0 0.0
2017-Oct-19 20:01N 43°20' W 003°02'0 0.0
2017-Oct-19 19:28N 43°20' W 003°02'0 0.0
2017-Oct-19 18:59N 43°20' W 003°02'2 3.6
2017-Oct-19 18:30N 43°22' W 003°03'510.2
2017-Oct-19 18:00N 43°26' W 003°08'2 3.6
2017-Oct-19 17:30N 43°26' W 003°10'1 1.1
2017-Oct-19 17:00N 43°27' W 003°11'1 2.4
2017-Oct-19 16:30N 43°26' W 003°09'1 1.6
2017-Oct-19 16:00N 43°26' W 003°09'3 5.8
2017-Oct-19 15:30N 43°28' W 003°11'3 6.1
2017-Oct-19 15:00N 43°31' W 003°11'3 6.4
2017-Oct-19 14:30N 43°34' W 003°12'5 9.4
2017-Oct-19 14:00N 43°39' W 003°14'612.5
2017-Oct-19 13:31N 43°44' W 003°18'612.2
2017-Oct-19 13:00N 43°50' W 003°21'612.2
2017-Oct-19 12:29N 43°56' W 003°24'612.4
2017-Oct-19 12:00N 44°01' W 003°28'20412.6
2017-Oct-18 19:45N 47°10' W 005°21'412.7
2017-Oct-18 19:26N 47°13' W 005°24'612.9
2017-Oct-18 18:58N 47°19' W 005°27'15412.1
2017-Oct-18 06:15N 49°41' W 006°57'7812.2
2017-Oct-17 23:51N 50°54' W 007°45'512.4
2017-Oct-17 23:28N 50°58' W 007°48'612.3
2017-Oct-17 23:00N 51°03' W 007°51'612.3
2017-Oct-17 22:30N 51°09' W 007°55'612.4
2017-Oct-17 22:01N 51°14' W 007°59'612.4
2017-Oct-17 21:30N 51°20' W 008°03'612.4
2017-Oct-17 21:01N 51°26' W 008°06'612.5
2017-Oct-17 20:30N 51°32' W 008°09'612.5
2017-Oct-17 20:00N 51°38' W 008°12'612.7
2017-Oct-17 19:30N 51°44' W 008°15'611.5
2017-Oct-17 19:00N 51°50' W 008°16'2 3.9
2017-Oct-17 18:28N 51°50' W 008°20'0 0.0
2017-Oct-17 17:58N 51°50' W 008°20'0 0.0
2017-Oct-17 17:28N 51°50' W 008°20'0 0.0
2017-Oct-17 16:58N 51°50' W 008°20'0 0.0
2017-Oct-17 16:28N 51°50' W 008°20'0 0.0
2017-Oct-17 15:58N 51°50' W 008°20'0 0.0
2017-Oct-17 15:28N 51°50' W 008°20'0 0.0
2017-Oct-17 14:58N 51°50' W 008°20'0 0.0
2017-Oct-17 14:28N 51°50' W 008°20'0 0.0
2017-Oct-17 13:58N 51°50' W 008°20'0 0.0
2017-Oct-17 13:28N 51°50' W 008°20'0 0.0
2017-Oct-17 12:55N 51°50' W 008°20'0 0.0
2017-Oct-17 12:28N 51°50' W 008°20'0 0.0
2017-Oct-17 11:58N 51°50' W 008°20'0 0.0
2017-Oct-17 11:28N 51°50' W 008°20'0 0.0
2017-Oct-17 10:58N 51°50' W 008°20'0 0.0
2017-Oct-17 10:28N 51°50' W 008°20'0 0.0
2017-Oct-17 09:58N 51°50' W 008°20'0 0.0
2017-Oct-17 09:28N 51°50' W 008°20'0 0.0
2017-Oct-17 08:58N 51°50' W 008°20'0 0.0
2017-Oct-17 08:28N 51°50' W 008°20'0 0.0
2017-Oct-17 07:58N 51°50' W 008°20'0 0.0
2017-Oct-17 07:28N 51°50' W 008°20'0 0.0
2017-Oct-17 06:58N 51°50' W 008°20'0 0.0
2017-Oct-17 06:28N 51°50' W 008°20'0 0.0
2017-Oct-17 05:58N 51°50' W 008°20'0 0.0
2017-Oct-17 05:26N 51°50' W 008°20'0 0.0
2017-Oct-17 04:58N 51°50' W 008°20'0 0.0
2017-Oct-17 04:28N 51°50' W 008°20'0 0.0
2017-Oct-17 03:58N 51°50' W 008°20'0 0.0
2017-Oct-17 03:16N 51°50' W 008°20'0 0.0
2017-Oct-17 02:58N 51°50' W 008°20'0 0.0
2017-Oct-17 02:28N 51°50' W 008°20'0 0.0
2017-Oct-17 01:58N 51°50' W 008°20'0 0.0
2017-Oct-17 01:28N 51°50' W 008°20'0 0.0
2017-Oct-17 00:58N 51°50' W 008°20'0 0.0
2017-Oct-17 00:28N 51°50' W 008°20'0 0.0
2017-Oct-16 23:58N 51°50' W 008°20'0 0.0
2017-Oct-16 23:28N 51°50' W 008°20'0 0.0
2017-Oct-16 22:58N 51°50' W 008°20'0 0.0
2017-Oct-16 22:28N 51°50' W 008°20'0 0.0
2017-Oct-16 21:58N 51°50' W 008°20'0 0.0
2017-Oct-16 21:28N 51°50' W 008°20'0 0.0
2017-Oct-16 20:55N 51°50' W 008°20'0 0.0
2017-Oct-16 20:28N 51°50' W 008°20'0 0.0
2017-Oct-16 19:58N 51°50' W 008°20'0 0.0
2017-Oct-16 19:25N 51°50' W 008°20'0 0.0
2017-Oct-16 18:58N 51°50' W 008°20'0 0.0
2017-Oct-16 18:28N 51°50' W 008°20'0 0.0
2017-Oct-16 17:58N 51°50' W 008°20'0 0.0
2017-Oct-16 17:19N 51°50' W 008°20'0 0.0
2017-Oct-16 13:28N 51°50' W 008°20'0 0.0
2017-Oct-16 12:58N 51°50' W 008°20'0 0.0
2017-Oct-16 12:25N 51°50' W 008°20'0 0.0
2017-Oct-16 11:58N 51°50' W 008°20'0 0.0
2017-Oct-16 11:28N 51°50' W 008°20'0 0.0
2017-Oct-16 10:58N 51°50' W 008°20'0 0.0
2017-Oct-16 10:28N 51°50' W 008°20'0 0.0
2017-Oct-16 09:55N 51°50' W 008°20'0 0.0
2017-Oct-16 09:28N 51°50' W 008°20'0 0.0
2017-Oct-16 08:58N 51°50' W 008°20'0 0.0
2017-Oct-16 08:28N 51°50' W 008°20'0 0.0
2017-Oct-16 07:58N 51°50' W 008°20'0 0.0
2017-Oct-16 07:28N 51°50' W 008°20'0 0.0
2017-Oct-16 06:58N 51°50' W 008°20'0 0.0
2017-Oct-16 06:28N 51°50' W 008°20'0 0.0
2017-Oct-16 05:58N 51°50' W 008°20'0 0.0
2017-Oct-16 05:28N 51°50' W 008°20'0 0.0
2017-Oct-16 04:58N 51°50' W 008°20'0 0.0
2017-Oct-16 04:28N 51°50' W 008°20'0 0.0
2017-Oct-16 03:58N 51°50' W 008°20'0 0.0
2017-Oct-16 03:28N 51°50' W 008°20'0 0.0
2017-Oct-16 02:58N 51°50' W 008°20'0 0.0
2017-Oct-16 02:28N 51°50' W 008°20'0 0.0
2017-Oct-16 01:58N 51°50' W 008°20'0 0.0
2017-Oct-16 01:28N 51°50' W 008°20'0 0.0
2017-Oct-16 00:58N 51°50' W 008°20'0 0.0
2017-Oct-16 00:28N 51°50' W 008°20'0 0.0
2017-Oct-15 23:58N 51°50' W 008°20'0 0.0
2017-Oct-15 23:28N 51°50' W 008°20'0 0.0
2017-Oct-15 22:58N 51°50' W 008°20'0 0.0
2017-Oct-15 22:28N 51°50' W 008°20'0 0.0
2017-Oct-15 21:58N 51°50' W 008°20'0 0.0
2017-Oct-15 21:28N 51°50' W 008°20'0 0.0
2017-Oct-15 20:58N 51°50' W 008°20'0 0.0
2017-Oct-15 20:28N 51°50' W 008°20'0 0.0
2017-Oct-15 19:58N 51°50' W 008°20'0 0.0
2017-Oct-15 19:28N 51°50' W 008°20'0 0.0
2017-Oct-15 18:58N 51°50' W 008°20'0 0.0
2017-Oct-15 18:28N 51°50' W 008°20'0 0.0
2017-Oct-15 17:58N 51°50' W 008°20'0 0.0
2017-Oct-15 17:28N 51°50' W 008°20'0 0.0
2017-Oct-15 16:58N 51°50' W 008°20'0 0.0
2017-Oct-15 16:28N 51°50' W 008°20'0 0.0
2017-Oct-15 15:58N 51°50' W 008°20'0 0.0
2017-Oct-15 15:25N 51°50' W 008°20'0 0.0
2017-Oct-15 14:58N 51°50' W 008°20'0 0.0
2017-Oct-15 13:55N 51°50' W 008°20'0 0.0
2017-Oct-15 13:28N 51°50' W 008°20'0 0.0
2017-Oct-15 12:58N 51°50' W 008°20'0 0.0
2017-Oct-15 12:25N 51°50' W 008°20'0 0.0
2017-Oct-15 11:58N 51°50' W 008°20'0 0.0
2017-Oct-15 11:28N 51°50' W 008°20'0 0.0
2017-Oct-15 10:58N 51°50' W 008°20'0 0.0
2017-Oct-15 10:28N 51°50' W 008°20'0 0.0
2017-Oct-15 09:58N 51°50' W 008°20'0 0.0
2017-Oct-15 09:28N 51°50' W 008°20'0 0.0
2017-Oct-15 08:58N 51°50' W 008°20'0 0.0
2017-Oct-15 08:28N 51°50' W 008°20'0 0.0
2017-Oct-15 07:58N 51°50' W 008°20'0 0.0
2017-Oct-15 07:28N 51°50' W 008°20'1 2.5
2017-Oct-15 07:00N 51°51' W 008°18'2 4.3
2017-Oct-15 06:30N 51°49' W 008°16'2 4.6
2017-Oct-15 06:00N 51°47' W 008°17'0 0.1
2017-Oct-15 05:30N 51°47' W 008°17'0 0.0
2017-Oct-15 05:00N 51°47' W 008°17'0 0.0
2017-Oct-15 04:27N 51°47' W 008°17'0 0.0
2017-Oct-15 03:54N 51°47' W 008°17'0 0.0
2017-Oct-15 03:27N 51°47' W 008°17'0 0.0
2017-Oct-15 03:00N 51°47' W 008°17'0 0.0
2017-Oct-15 02:30N 51°47' W 008°17'0 0.0
2017-Oct-15 02:00N 51°47' W 008°17'0 0.0
2017-Oct-15 01:30N 51°47' W 008°17'0 0.0
2017-Oct-15 01:00N 51°47' W 008°17'0 0.0
2017-Oct-15 00:30N 51°47' W 008°17'0 0.0
2017-Oct-15 00:00N 51°47' W 008°17'0 0.0
2017-Oct-14 23:30N 51°47' W 008°17'0 0.0
2017-Oct-14 23:00N 51°47' W 008°17'0 0.0
2017-Oct-14 22:30N 51°47' W 008°17'0 0.0
2017-Oct-14 22:00N 51°47' W 008°17'0 0.0
2017-Oct-14 21:30N 51°47' W 008°17'0 0.0
2017-Oct-14 20:57N 51°47' W 008°17'0 0.0
2017-Oct-14 20:27N 51°47' W 008°17'0 0.0
2017-Oct-14 20:00N 51°47' W 008°17'0 0.0
2017-Oct-14 19:30N 51°47' W 008°17'0 0.0
2017-Oct-14 19:00N 51°47' W 008°17'0 0.0
2017-Oct-14 18:30N 51°47' W 008°17'0 0.0
2017-Oct-14 18:00N 51°47' W 008°17'0 0.0
2017-Oct-14 17:30N 51°47' W 008°17'0 0.0
2017-Oct-14 17:00N 51°47' W 008°17'0 0.0
2017-Oct-14 16:30N 51°47' W 008°17'0 0.0
2017-Oct-14 16:00N 51°47' W 008°17'0 0.0
2017-Oct-14 15:30N 51°47' W 008°17'0 0.0
2017-Oct-14 15:00N 51°47' W 008°17'0 0.1
2017-Oct-14 14:30N 51°47' W 008°17'0 0.0
2017-Oct-14 14:00N 51°47' W 008°17'0 0.0
2017-Oct-14 13:30N 51°47' W 008°17'0 0.0
2017-Oct-14 13:00N 51°47' W 008°17'0 0.0
2017-Oct-14 12:30N 51°47' W 008°17'0 0.0
2017-Oct-14 12:00N 51°47' W 008°17'0 0.0
2017-Oct-14 11:30N 51°47' W 008°17'0 0.0
2017-Oct-14 11:00N 51°47' W 008°17'0 0.0
2017-Oct-14 10:30N 51°47' W 008°17'0 0.0
2017-Oct-14 10:00N 51°47' W 008°17'0 0.0
2017-Oct-14 09:30N 51°47' W 008°17'0 0.0
2017-Oct-14 09:00N 51°47' W 008°17'0 0.0
2017-Oct-14 08:27N 51°47' W 008°17'0 0.0
2017-Oct-14 08:00N 51°47' W 008°17'0 0.0
2017-Oct-14 07:30N 51°47' W 008°17'0 0.0
2017-Oct-14 07:00N 51°47' W 008°17'0 0.0
2017-Oct-14 06:30N 51°47' W 008°17'0 0.0
2017-Oct-14 06:00N 51°47' W 008°17'0 0.0
2017-Oct-14 05:30N 51°47' W 008°17'0 0.0
2017-Oct-14 05:00N 51°47' W 008°17'0 0.0
2017-Oct-14 04:30N 51°47' W 008°17'0 0.0
2017-Oct-14 04:00N 51°47' W 008°17'0 0.1
2017-Oct-14 03:30N 51°47' W 008°17'0 0.0
2017-Oct-14 03:00N 51°47' W 008°17'0 0.1
2017-Oct-14 02:30N 51°47' W 008°17'0 0.0
2017-Oct-14 02:00N 51°47' W 008°17'0 0.0
2017-Oct-14 01:30N 51°47' W 008°17'0 0.0
2017-Oct-14 01:00N 51°47' W 008°17'0 0.0
2017-Oct-14 00:30N 51°47' W 008°17'0 0.0
2017-Oct-14 00:00N 51°47' W 008°17'0 0.0
2017-Oct-13 23:30N 51°47' W 008°17'0 0.0
2017-Oct-13 23:00N 51°47' W 008°17'0 0.0
2017-Oct-13 22:30N 51°47' W 008°17'0 0.0
2017-Oct-13 22:00N 51°47' W 008°17'0 0.0
2017-Oct-13 21:30N 51°47' W 008°17'0 0.0
2017-Oct-13 21:00N 51°47' W 008°17'0 0.0
2017-Oct-13 20:30N 51°47' W 008°17'0 0.0
2017-Oct-13 20:00N 51°47' W 008°17'0 0.0
2017-Oct-13 19:30N 51°47' W 008°17'0 0.0
2017-Oct-13 19:00N 51°47' W 008°17'0 0.0
2017-Oct-13 18:30N 51°47' W 008°17'0 0.0
2017-Oct-13 18:00N 51°47' W 008°17'0 0.0
2017-Oct-13 17:30N 51°47' W 008°17'0 0.0
2017-Oct-13 17:00N 51°47' W 008°17'0 0.0
2017-Oct-13 16:30N 51°47' W 008°17'0 0.0
2017-Oct-13 16:00N 51°47' W 008°17'0 0.0
2017-Oct-13 15:30N 51°47' W 008°17'0 0.0
2017-Oct-13 15:00N 51°47' W 008°17'0 0.0
2017-Oct-13 14:27N 51°47' W 008°17'0 0.0
2017-Oct-13 14:00N 51°47' W 008°17'0 0.0
2017-Oct-13 13:30N 51°47' W 008°17'0 0.0
2017-Oct-13 13:00N 51°47' W 008°17'0 0.0
2017-Oct-13 12:30N 51°47' W 008°17'0 0.0
2017-Oct-13 12:00N 51°47' W 008°17'0 0.0
2017-Oct-13 11:30N 51°47' W 008°17'0 0.0
2017-Oct-13 11:00N 51°47' W 008°17'0 0.0
2017-Oct-13 10:30N 51°47' W 008°17'0 0.0
2017-Oct-13 10:00N 51°47' W 008°17'0 0.0
2017-Oct-13 09:30N 51°47' W 008°17'0 0.0
2017-Oct-13 09:00N 51°47' W 008°17'0 0.0
2017-Oct-13 08:30N 51°47' W 008°17'0 0.0
2017-Oct-13 08:00N 51°47' W 008°17'0 0.0
2017-Oct-13 07:30N 51°47' W 008°17'0 0.2
2017-Oct-13 07:01N 51°47' W 008°17'5 9.4
2017-Oct-13 06:30N 51°45' W 008°10'5 9.7
2017-Oct-13 06:00N 51°45' W 008°02'5 9.8
2017-Oct-13 05:30N 51°44' W 007°54'5 9.6
2017-Oct-13 05:00N 51°43' W 007°46'5 9.1
2017-Oct-13 04:30N 51°43' W 007°39'5 9.3
2017-Oct-13 04:00N 51°42' W 007°32'5 9.0
2017-Oct-13 03:30N 51°42' W 007°24'5 9.2
2017-Oct-13 03:00N 51°41' W 007°17'55 9.8
2017-Oct-12 21:20N 51°34' W 005°48'410.5
2017-Oct-12 21:00N 51°33' W 005°43'510.3
2017-Oct-12 20:30N 51°33' W 005°35'510.2
2017-Oct-12 20:00N 51°32' W 005°26'510.1
2017-Oct-12 19:30N 51°31' W 005°18'5 9.8
2017-Oct-12 19:00N 51°31' W 005°11'5 9.9
2017-Oct-12 18:30N 51°30' W 005°03'510.3
2017-Oct-12 18:00N 51°29' W 004°54'610.9
2017-Oct-12 17:26N 51°29' W 004°44'911.3
2017-Oct-12 16:39N 51°27' W 004°30'211.8
2017-Oct-12 16:29N 51°27' W 004°27'2312.7
2017-Oct-12 14:38N 51°24' W 003°50'313.8
2017-Oct-12 14:26N 51°24' W 003°46'714.3
2017-Oct-12 13:58N 51°23' W 003°35'1413.1
2017-Oct-12 12:52N 51°23' W 003°12'512.8
2017-Oct-12 12:30N 51°25' W 003°05'612.0
2017-Oct-12 12:00N 51°27' W 002°56'510.6
2017-Oct-12 11:30N 51°29' W 002°48'3 6.2
2017-Oct-12 11:00N 51°30' W 002°43'0 0.6
2017-Oct-12 10:28N 51°30' W 002°43'0 0.0
2017-Oct-12 09:58N 51°30' W 002°43'0 0.0
2017-Oct-12 09:28N 51°30' W 002°43'0 0.0
2017-Oct-12 08:58N 51°30' W 002°43'0 0.0
2017-Oct-12 08:28N 51°30' W 002°43'0 0.0
2017-Oct-12 07:58N 51°30' W 002°43'0 0.0
2017-Oct-12 07:28N 51°30' W 002°43'0 0.0
2017-Oct-12 06:58N 51°30' W 002°43'0 0.0
2017-Oct-12 06:28N 51°30' W 002°43'0 0.0
2017-Oct-12 05:58N 51°30' W 002°43'0 0.0
2017-Oct-12 05:28N 51°30' W 002°43'0 0.0
2017-Oct-12 04:58N 51°30' W 002°43'0 0.0
2017-Oct-12 04:28N 51°30' W 002°43'0 0.0
2017-Oct-12 03:55N 51°30' W 002°43'0 0.0
2017-Oct-12 03:28N 51°30' W 002°43'0 0.0
2017-Oct-12 02:58N 51°30' W 002°43'0 0.0
2017-Oct-12 02:25N 51°30' W 002°43'0 0.0
2017-Oct-12 01:58N 51°30' W 002°43'0 0.0
2017-Oct-12 01:28N 51°30' W 002°43'0 0.0
2017-Oct-12 00:58N 51°30' W 002°43'0 0.0
2017-Oct-12 00:28N 51°30' W 002°43'0 0.0
2017-Oct-11 23:58N 51°30' W 002°43'0 0.0
2017-Oct-11 23:28N 51°30' W 002°43'0 0.0
2017-Oct-11 22:55N 51°30' W 002°43'0 0.0
2017-Oct-11 22:28N 51°30' W 002°43'0 0.0
2017-Oct-11 21:55N 51°30' W 002°43'0 0.0
2017-Oct-11 21:28N 51°30' W 002°43'0 0.0
2017-Oct-11 20:58N 51°30' W 002°43'0 0.0
2017-Oct-11 20:28N 51°30' W 002°43'0 0.0
2017-Oct-11 19:58N 51°30' W 002°43'0 0.0
2017-Oct-11 19:28N 51°30' W 002°43'0 0.0
2017-Oct-11 18:58N 51°30' W 002°43'0 0.0
2017-Oct-11 18:28N 51°30' W 002°43'0 0.0
2017-Oct-11 17:58N 51°30' W 002°43'0 0.0
2017-Oct-11 17:28N 51°30' W 002°43'0 0.0
2017-Oct-11 16:58N 51°30' W 002°43'0 0.0
2017-Oct-10 23:58N 51°30' W 002°43'0 0.0
2017-Oct-10 23:28N 51°30' W 002°43'0 0.0
2017-Oct-10 22:58N 51°30' W 002°43'0 0.9
2017-Oct-10 22:28N 51°30' W 002°44'1 1.5
2017-Oct-10 22:00N 51°30' W 002°43'0 0.7
2017-Oct-10 21:30N 51°30' W 002°42'0 0.0
2017-Oct-10 21:00N 51°30' W 002°42'0 0.0
2017-Oct-10 20:30N 51°30' W 002°42'0 0.0
2017-Oct-10 20:00N 51°30' W 002°42'0 0.0
2017-Oct-10 19:30N 51°30' W 002°42'0 0.0
2017-Oct-10 19:00N 51°30' W 002°42'0 0.0
2017-Oct-10 18:30N 51°30' W 002°42'0 0.0
2017-Oct-10 18:00N 51°30' W 002°42'0 0.0
2017-Oct-10 17:30N 51°30' W 002°42'0 0.0
2017-Oct-10 17:00N 51°30' W 002°42'0 0.0
2017-Oct-10 16:30N 51°30' W 002°42'0 0.0
2017-Oct-10 16:00N 51°30' W 002°42'0 0.0
2017-Oct-10 15:30N 51°30' W 002°42'0 0.0
2017-Oct-10 15:00N 51°30' W 002°42'0 0.0
2017-Oct-10 14:00N 51°30' W 002°42'0 0.0
2017-Oct-10 13:30N 51°30' W 002°42'0 0.0
2017-Oct-10 13:00N 51°30' W 002°42'0 0.0
2017-Oct-10 12:30N 51°30' W 002°42'0 0.0
2017-Oct-10 12:00N 51°30' W 002°42'0 0.0
2017-Oct-10 11:30N 51°30' W 002°42'0 0.0
2017-Oct-10 11:00N 51°30' W 002°42'0 0.0
2017-Oct-10 10:30N 51°30' W 002°42'0 0.0
2017-Oct-10 10:00N 51°30' W 002°42'0 0.0
2017-Oct-10 09:27N 51°30' W 002°42'0 0.0
2017-Oct-10 09:00N 51°30' W 002°42'0 0.0
2017-Oct-10 08:30N 51°30' W 002°42'0 0.0
2017-Oct-10 08:00N 51°30' W 002°42'0 0.0
2017-Oct-10 07:30N 51°30' W 002°42'0 0.0
2017-Oct-10 07:00N 51°30' W 002°42'0 0.0
2017-Oct-10 06:30N 51°30' W 002°42'0 0.0
2017-Oct-10 05:57N 51°30' W 002°42'0 0.0
2017-Oct-10 05:30N 51°30' W 002°42'0 0.0
2017-Oct-10 05:00N 51°30' W 002°42'0 0.0
2017-Oct-10 04:30N 51°30' W 002°42'0 0.0
2017-Oct-10 04:00N 51°30' W 002°42'0 0.0
2017-Oct-10 03:30N 51°30' W 002°42'0 0.0
2017-Oct-10 03:00N 51°30' W 002°42'  
Track history (hours):
 
Tides and Currents Weather Stations Pressure Air Temp Water Temp Dewpoint Dewpoint Depression Visibility Wind Speed Wind Dir Waves Ship Positions

Capricorn

Last reported at 2017-Oct-20 03:31 UTC. Time now 2017-Oct-20 03:32 UTC.
Position N 43°20' W 003°02'.

Length 118 m; beam 15 m.

Type: Cargo ship. MMSI: 244050844.

Date/timePositionNaut miles runAvg speedWind from/ knotsBaromVisibWave heightAir tempDewpointWater temp
2017-Oct-20 03:31N 43°20' W 003°02'0 0.0
2017-Oct-20 02:55N 43°20' W 003°02'0 0.0
2017-Oct-20 02:28N 43°20' W 003°02'0 0.0
2017-Oct-20 01:58N 43°20' W 003°02'0 0.0
2017-Oct-20 01:28N 43°20' W 003°02'0 0.0
2017-Oct-20 01:01N 43°20' W 003°02'0 0.0
2017-Oct-20 00:28N 43°20' W 003°02'0 0.0
2017-Oct-20 00:01N 43°20' W 003°02'0 0.0
2017-Oct-19 23:25N 43°20' W 003°02'0 0.0
2017-Oct-19 22:55N 43°20' W 003°02'0 0.0
2017-Oct-19 22:31N 43°20' W 003°02'0 0.0
2017-Oct-19 21:58N 43°20' W 003°02'0 0.0
2017-Oct-19 21:28N 43°20' W 003°02'0 0.0
2017-Oct-19 20:58N 43°20' W 003°02'0 0.0
2017-Oct-19 20:31N 43°20' W 003°02'0 0.0
2017-Oct-19 20:01N 43°20' W 003°02'0 0.0
2017-Oct-19 19:28N 43°20' W 003°02'0 0.0
2017-Oct-19 18:59N 43°20' W 003°02'2 3.6
2017-Oct-19 18:30N 43°22' W 003°03'510.2
2017-Oct-19 18:00N 43°26' W 003°08'2 3.6
2017-Oct-19 17:30N 43°26' W 003°10'1 1.1
2017-Oct-19 17:00N 43°27' W 003°11'1 2.4
2017-Oct-19 16:30N 43°26' W 003°09'1 1.6
2017-Oct-19 16:00N 43°26' W 003°09'3 5.8
2017-Oct-19 15:30N 43°28' W 003°11'3 6.1
2017-Oct-19 15:00N 43°31' W 003°11'3 6.4
2017-Oct-19 14:30N 43°34' W 003°12'5 9.4
2017-Oct-19 14:00N 43°39' W 003°14'612.5
2017-Oct-19 13:31N 43°44' W 003°18'612.2
2017-Oct-19 13:00N 43°50' W 003°21'612.2
2017-Oct-19 12:29N 43°56' W 003°24'612.4
2017-Oct-19 12:00N 44°01' W 003°28'20412.6
2017-Oct-18 19:45N 47°10' W 005°21'412.7
2017-Oct-18 19:26N 47°13' W 005°24'612.9
2017-Oct-18 18:58N 47°19' W 005°27'15412.1
2017-Oct-18 06:15N 49°41' W 006°57'7812.2
2017-Oct-17 23:51N 50°54' W 007°45'512.4
2017-Oct-17 23:28N 50°58' W 007°48'612.3
2017-Oct-17 23:00N 51°03' W 007°51'612.3
2017-Oct-17 22:30N 51°09' W 007°55'612.4
2017-Oct-17 22:01N 51°14' W 007°59'612.4
2017-Oct-17 21:30N 51°20' W 008°03'612.4
2017-Oct-17 21:01N 51°26' W 008°06'612.5
2017-Oct-17 20:30N 51°32' W 008°09'612.5
2017-Oct-17 20:00N 51°38' W 008°12'612.7
2017-Oct-17 19:30N 51°44' W 008°15'611.5
2017-Oct-17 19:00N 51°50' W 008°16'2 3.9
2017-Oct-17 18:28N 51°50' W 008°20'0 0.0
2017-Oct-17 17:58N 51°50' W 008°20'0 0.0
2017-Oct-17 17:28N 51°50' W 008°20'0 0.0
2017-Oct-17 16:58N 51°50' W 008°20'0 0.0
2017-Oct-17 16:28N 51°50' W 008°20'0 0.0
2017-Oct-17 15:58N 51°50' W 008°20'0 0.0
2017-Oct-17 15:28N 51°50' W 008°20'0 0.0
2017-Oct-17 14:58N 51°50' W 008°20'0 0.0
2017-Oct-17 14:28N 51°50' W 008°20'0 0.0
2017-Oct-17 13:58N 51°50' W 008°20'0 0.0
2017-Oct-17 13:28N 51°50' W 008°20'0 0.0
2017-Oct-17 12:55N 51°50' W 008°20'0 0.0
2017-Oct-17 12:28N 51°50' W 008°20'0 0.0
2017-Oct-17 11:58N 51°50' W 008°20'0 0.0
2017-Oct-17 11:28N 51°50' W 008°20'0 0.0
2017-Oct-17 10:58N 51°50' W 008°20'0 0.0
2017-Oct-17 10:28N 51°50' W 008°20'0 0.0
2017-Oct-17 09:58N 51°50' W 008°20'0 0.0
2017-Oct-17 09:28N 51°50' W 008°20'0 0.0
2017-Oct-17 08:58N 51°50' W 008°20'0 0.0
2017-Oct-17 08:28N 51°50' W 008°20'0 0.0
2017-Oct-17 07:58N 51°50' W 008°20'0 0.0
2017-Oct-17 07:28N 51°50' W 008°20'0 0.0
2017-Oct-17 06:58N 51°50' W 008°20'0 0.0
2017-Oct-17 06:28N 51°50' W 008°20'0 0.0
2017-Oct-17 05:58N 51°50' W 008°20'0 0.0
2017-Oct-17 05:26N 51°50' W 008°20'0 0.0
2017-Oct-17 04:58N 51°50' W 008°20'0 0.0
2017-Oct-17 04:28N 51°50' W 008°20'0 0.0
2017-Oct-17 03:58N 51°50' W 008°20'0 0.0
2017-Oct-17 03:16N 51°50' W 008°20'0 0.0
2017-Oct-17 02:58N 51°50' W 008°20'0 0.0
2017-Oct-17 02:28N 51°50' W 008°20'0 0.0
2017-Oct-17 01:58N 51°50' W 008°20'0 0.0
2017-Oct-17 01:28N 51°50' W 008°20'0 0.0
2017-Oct-17 00:58N 51°50' W 008°20'0 0.0
2017-Oct-17 00:28N 51°50' W 008°20'0 0.0
2017-Oct-16 23:58N 51°50' W 008°20'0 0.0
2017-Oct-16 23:28N 51°50' W 008°20'0 0.0
2017-Oct-16 22:58N 51°50' W 008°20'0 0.0
2017-Oct-16 22:28N 51°50' W 008°20'0 0.0
2017-Oct-16 21:58N 51°50' W 008°20'0 0.0
2017-Oct-16 21:28N 51°50' W 008°20'0 0.0
2017-Oct-16 20:55N 51°50' W 008°20'0 0.0
2017-Oct-16 20:28N 51°50' W 008°20'0 0.0
2017-Oct-16 19:58N 51°50' W 008°20'0 0.0
2017-Oct-16 19:25N 51°50' W 008°20'0 0.0
2017-Oct-16 18:58N 51°50' W 008°20'0 0.0
2017-Oct-16 18:28N 51°50' W 008°20'0 0.0
2017-Oct-16 17:58N 51°50' W 008°20'0 0.0
2017-Oct-16 17:19N 51°50' W 008°20'0 0.0
2017-Oct-16 13:28N 51°50' W 008°20'0 0.0
2017-Oct-16 12:58N 51°50' W 008°20'0 0.0
2017-Oct-16 12:25N 51°50' W 008°20'0 0.0
2017-Oct-16 11:58N 51°50' W 008°20'0 0.0
2017-Oct-16 11:28N 51°50' W 008°20'0 0.0
2017-Oct-16 10:58N 51°50' W 008°20'0 0.0
2017-Oct-16 10:28N 51°50' W 008°20'0 0.0
2017-Oct-16 09:55N 51°50' W 008°20'0 0.0
2017-Oct-16 09:28N 51°50' W 008°20'0 0.0
2017-Oct-16 08:58N 51°50' W 008°20'0 0.0
2017-Oct-16 08:28N 51°50' W 008°20'0 0.0
2017-Oct-16 07:58N 51°50' W 008°20'0 0.0
2017-Oct-16 07:28N 51°50' W 008°20'0 0.0
2017-Oct-16 06:58N 51°50' W 008°20'0 0.0
2017-Oct-16 06:28N 51°50' W 008°20'0 0.0
2017-Oct-16 05:58N 51°50' W 008°20'0 0.0
2017-Oct-16 05:28N 51°50' W 008°20'0 0.0
2017-Oct-16 04:58N 51°50' W 008°20'0 0.0
2017-Oct-16 04:28N 51°50' W 008°20'0 0.0
2017-Oct-16 03:58N 51°50' W 008°20'0 0.0
2017-Oct-16 03:28N 51°50' W 008°20'0 0.0
2017-Oct-16 02:58N 51°50' W 008°20'0 0.0
2017-Oct-16 02:28N 51°50' W 008°20'0 0.0
2017-Oct-16 01:58N 51°50' W 008°20'0 0.0
2017-Oct-16 01:28N 51°50' W 008°20'0 0.0
2017-Oct-16 00:58N 51°50' W 008°20'0 0.0
2017-Oct-16 00:28N 51°50' W 008°20'0 0.0
2017-Oct-15 23:58N 51°50' W 008°20'0 0.0
2017-Oct-15 23:28N 51°50' W 008°20'0 0.0
2017-Oct-15 22:58N 51°50' W 008°20'0 0.0
2017-Oct-15 22:28N 51°50' W 008°20'0 0.0
2017-Oct-15 21:58N 51°50' W 008°20'0 0.0
2017-Oct-15 21:28N 51°50' W 008°20'0 0.0
2017-Oct-15 20:58N 51°50' W 008°20'0 0.0
2017-Oct-15 20:28N 51°50' W 008°20'0 0.0
2017-Oct-15 19:58N 51°50' W 008°20'0 0.0
2017-Oct-15 19:28N 51°50' W 008°20'0 0.0
2017-Oct-15 18:58N 51°50' W 008°20'0 0.0
2017-Oct-15 18:28N 51°50' W 008°20'0 0.0
2017-Oct-15 17:58N 51°50' W 008°20'0 0.0
2017-Oct-15 17:28N 51°50' W 008°20'0 0.0
2017-Oct-15 16:58N 51°50' W 008°20'0 0.0
2017-Oct-15 16:28N 51°50' W 008°20'0 0.0
2017-Oct-15 15:58N 51°50' W 008°20'0 0.0
2017-Oct-15 15:25N 51°50' W 008°20'0 0.0
2017-Oct-15 14:58N 51°50' W 008°20'0 0.0
2017-Oct-15 13:55N 51°50' W 008°20'0 0.0
2017-Oct-15 13:28N 51°50' W 008°20'0 0.0
2017-Oct-15 12:58N 51°50' W 008°20'0 0.0
2017-Oct-15 12:25N 51°50' W 008°20'0 0.0
2017-Oct-15 11:58N 51°50' W 008°20'0 0.0
2017-Oct-15 11:28N 51°50' W 008°20'0 0.0
2017-Oct-15 10:58N 51°50' W 008°20'0 0.0
2017-Oct-15 10:28N 51°50' W 008°20'0 0.0
2017-Oct-15 09:58N 51°50' W 008°20'0 0.0
2017-Oct-15 09:28N 51°50' W 008°20'0 0.0
2017-Oct-15 08:58N 51°50' W 008°20'0 0.0
2017-Oct-15 08:28N 51°50' W 008°20'0 0.0
2017-Oct-15 07:58N 51°50' W 008°20'0 0.0
2017-Oct-15 07:28N 51°50' W 008°20'1 2.5
2017-Oct-15 07:00N 51°51' W 008°18'2 4.3
2017-Oct-15 06:30N 51°49' W 008°16'2 4.6
2017-Oct-15 06:00N 51°47' W 008°17'0 0.1
2017-Oct-15 05:30N 51°47' W 008°17'0 0.0
2017-Oct-15 05:00N 51°47' W 008°17'0 0.0
2017-Oct-15 04:27N 51°47' W 008°17'0 0.0
2017-Oct-15 03:54N 51°47' W 008°17'0 0.0
2017-Oct-15 03:27N 51°47' W 008°17'0 0.0
2017-Oct-15 03:00N 51°47' W 008°17'0 0.0
2017-Oct-15 02:30N 51°47' W 008°17'0 0.0
2017-Oct-15 02:00N 51°47' W 008°17'0 0.0
2017-Oct-15 01:30N 51°47' W 008°17'0 0.0
2017-Oct-15 01:00N 51°47' W 008°17'0 0.0
2017-Oct-15 00:30N 51°47' W 008°17'0 0.0
2017-Oct-15 00:00N 51°47' W 008°17'0 0.0
2017-Oct-14 23:30N 51°47' W 008°17'0 0.0
2017-Oct-14 23:00N 51°47' W 008°17'0 0.0
2017-Oct-14 22:30N 51°47' W 008°17'0 0.0
2017-Oct-14 22:00N 51°47' W 008°17'0 0.0
2017-Oct-14 21:30N 51°47' W 008°17'0 0.0
2017-Oct-14 20:57N 51°47' W 008°17'0 0.0
2017-Oct-14 20:27N 51°47' W 008°17'0 0.0
2017-Oct-14 20:00N 51°47' W 008°17'0 0.0
2017-Oct-14 19:30N 51°47' W 008°17'0 0.0
2017-Oct-14 19:00N 51°47' W 008°17'0 0.0
2017-Oct-14 18:30N 51°47' W 008°17'0 0.0
2017-Oct-14 18:00N 51°47' W 008°17'0 0.0
2017-Oct-14 17:30N 51°47' W 008°17'0 0.0
2017-Oct-14 17:00N 51°47' W 008°17'0 0.0
2017-Oct-14 16:30N 51°47' W 008°17'0 0.0
2017-Oct-14 16:00N 51°47' W 008°17'0 0.0
2017-Oct-14 15:30N 51°47' W 008°17'0 0.0
2017-Oct-14 15:00N 51°47' W 008°17'0 0.1
2017-Oct-14 14:30N 51°47' W 008°17'0 0.0
2017-Oct-14 14:00N 51°47' W 008°17'0 0.0
2017-Oct-14 13:30N 51°47' W 008°17'0 0.0
2017-Oct-14 13:00N 51°47' W 008°17'0 0.0
2017-Oct-14 12:30N 51°47' W 008°17'0 0.0
2017-Oct-14 12:00N 51°47' W 008°17'0 0.0
2017-Oct-14 11:30N 51°47' W 008°17'0 0.0
2017-Oct-14 11:00N 51°47' W 008°17'0 0.0
2017-Oct-14 10:30N 51°47' W 008°17'0 0.0
2017-Oct-14 10:00N 51°47' W 008°17'0 0.0
2017-Oct-14 09:30N 51°47' W 008°17'0 0.0
2017-Oct-14 09:00N 51°47' W 008°17'0 0.0
2017-Oct-14 08:27N 51°47' W 008°17'0 0.0
2017-Oct-14 08:00N 51°47' W 008°17'0 0.0
2017-Oct-14 07:30N 51°47' W 008°17'0 0.0
2017-Oct-14 07:00N 51°47' W 008°17'0 0.0
2017-Oct-14 06:30N 51°47' W 008°17'0 0.0
2017-Oct-14 06:00N 51°47' W 008°17'0 0.0
2017-Oct-14 05:30N 51°47' W 008°17'0 0.0
2017-Oct-14 05:00N 51°47' W 008°17'0 0.0
2017-Oct-14 04:30N 51°47' W 008°17'0 0.0
2017-Oct-14 04:00N 51°47' W 008°17'0 0.1
2017-Oct-14 03:30N 51°47' W 008°17'0 0.0
2017-Oct-14 03:00N 51°47' W 008°17'0 0.1
2017-Oct-14 02:30N 51°47' W 008°17'0 0.0
2017-Oct-14 02:00N 51°47' W 008°17'0 0.0
2017-Oct-14 01:30N 51°47' W 008°17'0 0.0
2017-Oct-14 01:00N 51°47' W 008°17'0 0.0
2017-Oct-14 00:30N 51°47' W 008°17'0 0.0
2017-Oct-14 00:00N 51°47' W 008°17'0 0.0
2017-Oct-13 23:30N 51°47' W 008°17'0 0.0
2017-Oct-13 23:00N 51°47' W 008°17'0 0.0
2017-Oct-13 22:30N 51°47' W 008°17'0 0.0
2017-Oct-13 22:00N 51°47' W 008°17'0 0.0
2017-Oct-13 21:30N 51°47' W 008°17'0 0.0
2017-Oct-13 21:00N 51°47' W 008°17'0 0.0
2017-Oct-13 20:30N 51°47' W 008°17'0 0.0
2017-Oct-13 20:00N 51°47' W 008°17'0 0.0
2017-Oct-13 19:30N 51°47' W 008°17'0 0.0
2017-Oct-13 19:00N 51°47' W 008°17'0 0.0
2017-Oct-13 18:30N 51°47' W 008°17'0 0.0
2017-Oct-13 18:00N 51°47' W 008°17'0 0.0
2017-Oct-13 17:30N 51°47' W 008°17'0 0.0
2017-Oct-13 17:00N 51°47' W 008°17'0 0.0
2017-Oct-13 16:30N 51°47' W 008°17'0 0.0
2017-Oct-13 16:00N 51°47' W 008°17'0 0.0
2017-Oct-13 15:30N 51°47' W 008°17'0 0.0
2017-Oct-13 15:00N 51°47' W 008°17'0 0.0
2017-Oct-13 14:27N 51°47' W 008°17'0 0.0
2017-Oct-13 14:00N 51°47' W 008°17'0 0.0
2017-Oct-13 13:30N 51°47' W 008°17'0 0.0
2017-Oct-13 13:00N 51°47' W 008°17'0 0.0
2017-Oct-13 12:30N 51°47' W 008°17'0 0.0
2017-Oct-13 12:00N 51°47' W 008°17'0 0.0
2017-Oct-13 11:30N 51°47' W 008°17'0 0.0
2017-Oct-13 11:00N 51°47' W 008°17'0 0.0
2017-Oct-13 10:30N 51°47' W 008°17'0 0.0
2017-Oct-13 10:00N 51°47' W 008°17'0 0.0
2017-Oct-13 09:30N 51°47' W 008°17'0 0.0
2017-Oct-13 09:00N 51°47' W 008°17'0 0.0
2017-Oct-13 08:30N 51°47' W 008°17'0 0.0
2017-Oct-13 08:00N 51°47' W 008°17'0 0.0
2017-Oct-13 07:30N 51°47' W 008°17'0 0.2
2017-Oct-13 07:01N 51°47' W 008°17'5 9.4
2017-Oct-13 06:30N 51°45' W 008°10'5 9.7
2017-Oct-13 06:00N 51°45' W 008°02'5 9.8
2017-Oct-13 05:30N 51°44' W 007°54'5 9.6
2017-Oct-13 05:00N 51°43' W 007°46'5 9.1
2017-Oct-13 04:30N 51°43' W 007°39'5 9.3
2017-Oct-13 04:00N 51°42' W 007°32'5 9.0
2017-Oct-13 03:30N 51°42' W 007°24'5 9.2
2017-Oct-13 03:00N 51°41' W 007°17'55 9.8
2017-Oct-12 21:20N 51°34' W 005°48'410.5
2017-Oct-12 21:00N 51°33' W 005°43'510.3
2017-Oct-12 20:30N 51°33' W 005°35'510.2
2017-Oct-12 20:00N 51°32' W 005°26'510.1
2017-Oct-12 19:30N 51°31' W 005°18'5 9.8
2017-Oct-12 19:00N 51°31' W 005°11'5 9.9
2017-Oct-12 18:30N 51°30' W 005°03'510.3
2017-Oct-12 18:00N 51°29' W 004°54'610.9
2017-Oct-12 17:26N 51°29' W 004°44'911.3
2017-Oct-12 16:39N 51°27' W 004°30'211.8
2017-Oct-12 16:29N 51°27' W 004°27'2312.7
2017-Oct-12 14:38N 51°24' W 003°50'313.8
2017-Oct-12 14:26N 51°24' W 003°46'714.3
2017-Oct-12 13:58N 51°23' W 003°35'1413.1
2017-Oct-12 12:52N 51°23' W 003°12'512.8
2017-Oct-12 12:30N 51°25' W 003°05'612.0
2017-Oct-12 12:00N 51°27' W 002°56'510.6
2017-Oct-12 11:30N 51°29' W 002°48'3 6.2
2017-Oct-12 11:00N 51°30' W 002°43'0 0.6
2017-Oct-12 10:28N 51°30' W 002°43'0 0.0
2017-Oct-12 09:58N 51°30' W 002°43'0 0.0
2017-Oct-12 09:28N 51°30' W 002°43'0 0.0
2017-Oct-12 08:58N 51°30' W 002°43'0 0.0
2017-Oct-12 08:28N 51°30' W 002°43'0 0.0
2017-Oct-12 07:58N 51°30' W 002°43'0 0.0
2017-Oct-12 07:28N 51°30' W 002°43'0 0.0
2017-Oct-12 06:58N 51°30' W 002°43'0 0.0
2017-Oct-12 06:28N 51°30' W 002°43'0 0.0
2017-Oct-12 05:58N 51°30' W 002°43'0 0.0
2017-Oct-12 05:28N 51°30' W 002°43'0 0.0
2017-Oct-12 04:58N 51°30' W 002°43'0 0.0
2017-Oct-12 04:28N 51°30' W 002°43'0 0.0
2017-Oct-12 03:55N 51°30' W 002°43'0 0.0
2017-Oct-12 03:28N 51°30' W 002°43'0 0.0
2017-Oct-12 02:58N 51°30' W 002°43'0 0.0
2017-Oct-12 02:25N 51°30' W 002°43'0 0.0
2017-Oct-12 01:58N 51°30' W 002°43'0 0.0
2017-Oct-12 01:28N 51°30' W 002°43'0 0.0
2017-Oct-12 00:58N 51°30' W 002°43'0 0.0
2017-Oct-12 00:28N 51°30' W 002°43'0 0.0
2017-Oct-11 23:58N 51°30' W 002°43'0 0.0
2017-Oct-11 23:28N 51°30' W 002°43'0 0.0
2017-Oct-11 22:55N 51°30' W 002°43'0 0.0
2017-Oct-11 22:28N 51°30' W 002°43'0 0.0
2017-Oct-11 21:55N 51°30' W 002°43'0 0.0
2017-Oct-11 21:28N 51°30' W 002°43'0 0.0
2017-Oct-11 20:58N 51°30' W 002°43'0 0.0
2017-Oct-11 20:28N 51°30' W 002°43'0 0.0
2017-Oct-11 19:58N 51°30' W 002°43'0 0.0
2017-Oct-11 19:28N 51°30' W 002°43'0 0.0
2017-Oct-11 18:58N 51°30' W 002°43'0 0.0
2017-Oct-11 18:28N 51°30' W 002°43'0 0.0
2017-Oct-11 17:58N 51°30' W 002°43'0 0.0
2017-Oct-11 17:28N 51°30' W 002°43'0 0.0
2017-Oct-11 16:58N 51°30' W 002°43'0 0.0
2017-Oct-10 23:58N 51°30' W 002°43'0 0.0
2017-Oct-10 23:28N 51°30' W 002°43'0 0.0
2017-Oct-10 22:58N 51°30' W 002°43'0 0.9
2017-Oct-10 22:28N 51°30' W 002°44'1 1.5
2017-Oct-10 22:00N 51°30' W 002°43'0 0.7
2017-Oct-10 21:30N 51°30' W 002°42'0 0.0
2017-Oct-10 21:00N 51°30' W 002°42'0 0.0
2017-Oct-10 20:30N 51°30' W 002°42'0 0.0
2017-Oct-10 20:00N 51°30' W 002°42'0 0.0
2017-Oct-10 19:30N 51°30' W 002°42'0 0.0
2017-Oct-10 19:00N 51°30' W 002°42'0 0.0
2017-Oct-10 18:30N 51°30' W 002°42'0 0.0
2017-Oct-10 18:00N 51°30' W 002°42'0 0.0
2017-Oct-10 17:30N 51°30' W 002°42'0 0.0
2017-Oct-10 17:00N 51°30' W 002°42'0 0.0
2017-Oct-10 16:30N 51°30' W 002°42'0 0.0
2017-Oct-10 16:00N 51°30' W 002°42'0 0.0
2017-Oct-10 15:30N 51°30' W 002°42'0 0.0
2017-Oct-10 15:00N 51°30' W 002°42'0 0.0
2017-Oct-10 14:00N 51°30' W 002°42'0 0.0
2017-Oct-10 13:30N 51°30' W 002°42'0 0.0
2017-Oct-10 13:00N 51°30' W 002°42'0 0.0
2017-Oct-10 12:30N 51°30' W 002°42'0 0.0
2017-Oct-10 12:00N 51°30' W 002°42'0 0.0
2017-Oct-10 11:30N 51°30' W 002°42'0 0.0
2017-Oct-10 11:00N 51°30' W 002°42'0 0.0
2017-Oct-10 10:30N 51°30' W 002°42'0 0.0
2017-Oct-10 10:00N 51°30' W 002°42'0 0.0
2017-Oct-10 09:27N 51°30' W 002°42'0 0.0
2017-Oct-10 09:00N 51°30' W 002°42'0 0.0
2017-Oct-10 08:30N 51°30' W 002°42'0 0.0
2017-Oct-10 08:00N 51°30' W 002°42'0 0.0
2017-Oct-10 07:30N 51°30' W 002°42'0 0.0
2017-Oct-10 07:00N 51°30' W 002°42'0 0.0
2017-Oct-10 06:30N 51°30' W 002°42'0 0.0
2017-Oct-10 05:57N 51°30' W 002°42'0 0.0
2017-Oct-10 05:30N 51°30' W 002°42'0 0.0
2017-Oct-10 05:00N 51°30' W 002°42'0 0.0
2017-Oct-10 04:30N 51°30' W 002°42'0 0.0
2017-Oct-10 04:00N 51°30' W 002°42'0 0.0
2017-Oct-10 03:30N 51°30' W 002°42'0 0.0
2017-Oct-10 03:00N 51°30' W 002°42'  

Dump ship's entire track history